createdAt,value
2022-11-25T00:01:48.062Z,4.97
2022-11-25T00:04:53.409Z,4.90
2022-11-25T00:07:59.171Z,4.84
2022-11-25T00:11:06.542Z,4.92
2022-11-25T00:14:15.081Z,4.89
2022-11-25T00:17:20.457Z,4.89
2022-11-25T00:20:25.830Z,4.77
2022-11-25T00:23:33.410Z,4.87
2022-11-25T00:26:39.128Z,4.53
2022-11-25T00:29:44.593Z,4.52
2022-11-25T00:32:49.830Z,4.61
2022-11-25T00:35:55.157Z,4.65
2022-11-25T00:39:03.340Z,4.76
2022-11-25T00:42:28.929Z,4.76
2022-11-25T00:45:34.276Z,4.74
2022-11-25T00:48:39.887Z,4.83
2022-11-25T00:51:45.370Z,4.67
2022-11-25T00:54:52.289Z,4.66
2022-11-25T00:57:57.725Z,4.77
2022-11-25T01:01:05.180Z,4.79
2022-11-25T01:04:10.893Z,4.88
2022-11-25T01:07:18.291Z,4.79
2022-11-25T01:10:23.825Z,4.88
2022-11-25T01:13:29.571Z,4.81
2022-11-25T01:16:35.387Z,4.79
2022-11-25T01:19:42.244Z,4.85
2022-11-25T01:22:48.021Z,4.97
2022-11-25T01:25:53.172Z,5.01
2022-11-25T01:29:01.169Z,4.91
2022-11-25T01:32:06.503Z,4.87
2022-11-25T01:35:12.543Z,4.99
2022-11-25T01:38:17.936Z,4.90
2022-11-25T01:41:26.740Z,4.87
2022-11-25T01:44:33.633Z,4.73
2022-11-25T01:47:39.793Z,4.73
2022-11-25T01:50:47.548Z,4.66
2022-11-25T01:53:57.918Z,4.68
2022-11-25T01:57:10.136Z,4.85
2022-11-25T02:00:18.139Z,4.73
2022-11-25T02:03:32.246Z,4.69
2022-11-25T02:06:48.052Z,4.64
2022-11-25T02:09:55.981Z,4.55
2022-11-25T02:13:01.650Z,4.63
2022-11-25T02:16:07.090Z,4.61
2022-11-25T02:19:28.014Z,4.54
2022-11-25T02:22:51.413Z,4.58
2022-11-25T02:25:57.296Z,4.61
2022-11-25T02:29:02.805Z,4.66
2022-11-25T02:32:08.982Z,4.41
2022-11-25T02:35:33.489Z,4.23
2022-11-25T02:38:48.218Z,4.19
2022-11-25T02:41:58.859Z,4.30
2022-11-25T02:45:05.564Z,4.35
2022-11-25T02:48:10.981Z,4.29
2022-11-25T02:51:20.130Z,4.25
2022-11-25T02:54:25.442Z,4.37
2022-11-25T02:57:31.190Z,4.47
2022-11-25T03:00:36.789Z,4.55
2022-11-25T03:03:42.789Z,4.49
2022-11-25T03:06:48.053Z,4.37
2022-11-25T03:09:53.346Z,4.09
2022-11-25T03:12:58.825Z,4.16
2022-11-25T03:16:04.895Z,4.39
2022-11-25T03:19:10.901Z,4.55
2022-11-25T03:22:16.516Z,4.47
2022-11-25T03:25:22.475Z,4.59
2022-11-25T03:28:29.128Z,4.67
2022-11-25T03:31:36.562Z,4.31
2022-11-25T03:34:42.483Z,4.30
2022-11-25T03:37:48.319Z,4.26
2022-11-25T03:40:53.970Z,4.40
2022-11-25T03:43:59.975Z,4.35
2022-11-25T03:47:05.594Z,4.47
2022-11-25T03:50:13.730Z,4.28
2022-11-25T03:53:19.471Z,4.41
2022-11-25T03:56:25.576Z,4.46
2022-11-25T03:59:30.998Z,4.51
2022-11-25T04:02:36.525Z,4.45
2022-11-25T04:05:42.385Z,4.47
2022-11-25T04:08:48.259Z,4.45
2022-11-25T04:12:12.073Z,4.50
2022-11-25T04:15:28.630Z,4.61
2022-11-25T04:18:36.479Z,4.54
2022-11-25T04:21:41.834Z,4.63
2022-11-25T04:24:48.680Z,4.53
2022-11-25T04:27:59.888Z,4.51
2022-11-25T04:31:11.978Z,4.24
2022-11-25T04:34:21.175Z,4.34
2022-11-25T04:37:29.421Z,4.54
2022-11-25T04:40:35.631Z,4.66
2022-11-25T04:43:56.372Z,4.61
2022-11-25T04:47:01.797Z,4.52
2022-11-25T04:50:13.128Z,4.64
2022-11-25T04:53:28.378Z,4.70
2022-11-25T04:56:33.869Z,4.52
2022-11-25T04:59:42.671Z,4.48
2022-11-25T05:02:50.945Z,4.59
2022-11-25T05:05:58.792Z,4.67
2022-11-25T05:09:05.046Z,4.73
2022-11-25T05:12:25.984Z,4.78
2022-11-25T05:15:31.765Z,4.89
2022-11-25T05:18:37.367Z,5.04
2022-11-25T05:21:42.842Z,4.96
2022-11-25T05:24:49.323Z,5.01
2022-11-25T05:27:56.152Z,5.12
2022-11-25T05:31:01.578Z,5.15
2022-11-25T05:34:08.327Z,5.07
2022-11-25T05:37:17.729Z,5.10
2022-11-25T05:40:35.167Z,5.03
2022-11-25T05:43:47.690Z,4.95
2022-11-25T05:46:54.367Z,5.11
2022-11-25T05:50:00.027Z,5.24
2022-11-25T05:53:06.230Z,5.18
2022-11-25T05:56:13.813Z,5.10
2022-11-25T05:59:42.018Z,5.00
2022-11-25T06:02:53.701Z,4.98
2022-11-25T06:06:03.072Z,4.93
2022-11-25T06:09:10.069Z,4.92
2022-11-25T06:12:16.789Z,4.85
2022-11-25T06:15:27.171Z,4.80
2022-11-25T06:18:37.859Z,4.80
2022-11-25T06:21:45.601Z,4.87
2022-11-25T06:24:58.898Z,4.80
2022-11-25T06:28:13.106Z,4.77
2022-11-25T06:31:25.593Z,4.82
2022-11-25T06:34:50.968Z,4.66
2022-11-25T06:38:17.050Z,4.38
2022-11-25T06:41:23.339Z,4.31
2022-11-25T06:44:29.053Z,4.52
2022-11-25T06:47:34.435Z,4.37
2022-11-25T06:50:40.341Z,4.32
2022-11-25T06:53:46.950Z,4.46
2022-11-25T06:56:54.083Z,4.68
2022-11-25T07:00:00.098Z,4.71
2022-11-25T07:03:05.761Z,4.63
2022-11-25T07:06:16.269Z,4.71
2022-11-25T07:09:22.948Z,4.80
2022-11-25T07:12:28.283Z,4.86
2022-11-25T07:15:35.160Z,4.87
2022-11-25T07:18:42.148Z,4.82
2022-11-25T07:21:47.964Z,4.72
2022-11-25T07:24:53.337Z,4.68
2022-11-25T07:27:58.860Z,4.70
2022-11-25T07:31:27.520Z,4.61
2022-11-25T07:34:34.802Z,4.62
2022-11-25T07:37:40.475Z,4.74
2022-11-25T07:40:46.381Z,4.85
2022-11-25T07:43:54.475Z,4.98
2022-11-25T07:47:02.865Z,5.00
2022-11-25T07:50:09.292Z,5.05
2022-11-25T07:53:14.634Z,5.17
2022-11-25T07:56:21.762Z,5.26
2022-11-25T07:59:27.971Z,5.27
2022-11-25T08:02:34.421Z,5.41
2022-11-25T08:05:40.168Z,5.35
2022-11-25T08:08:46.633Z,5.20
2022-11-25T08:11:53.123Z,5.43
2022-11-25T08:14:59.028Z,5.73
2022-11-25T08:18:04.572Z,5.72
2022-11-25T08:21:13.325Z,5.83
2022-11-25T08:24:21.330Z,5.90
2022-11-25T08:27:26.953Z,6.04
2022-11-25T08:30:32.626Z,6.16
2022-11-25T08:33:38.513Z,6.27
2022-11-25T08:36:48.202Z,6.21
2022-11-25T08:39:55.473Z,6.39
2022-11-25T08:43:02.671Z,6.60
2022-11-25T08:46:20.925Z,6.75
2022-11-25T08:49:34.989Z,6.84
2022-11-25T08:52:44.805Z,6.94
2022-11-25T08:55:51.022Z,7.16
2022-11-25T08:58:57.930Z,7.08
2022-11-25T09:02:03.612Z,7.07
2022-11-25T09:05:13.721Z,7.07
2022-11-25T09:08:21.356Z,7.08
2022-11-25T09:11:27.529Z,7.13
2022-11-25T09:14:33.090Z,7.23
2022-11-25T09:17:38.666Z,7.29
2022-11-25T09:20:45.181Z,7.34
2022-11-25T09:23:52.802Z,7.45
2022-11-25T09:26:58.160Z,7.56
2022-11-25T09:30:04.236Z,7.60
2022-11-25T09:33:09.929Z,7.79
2022-11-25T09:36:18.640Z,7.83
2022-11-25T09:39:28.551Z,7.97
2022-11-25T09:43:21.019Z,8.16
2022-11-25T09:46:51.729Z,8.29
2022-11-25T09:50:06.086Z,8.49
2022-11-25T09:53:33.254Z,8.49
2022-11-25T09:56:45.456Z,8.59
2022-11-25T10:00:11.590Z,8.79
2022-11-25T10:03:36.106Z,8.83
2022-11-25T10:06:48.402Z,9.00
2022-11-25T10:10:01.762Z,9.02
2022-11-25T10:13:22.261Z,9.28
2022-11-25T10:16:36.508Z,9.24
2022-11-25T10:19:57.428Z,9.36
2022-11-25T10:23:16.943Z,9.53
2022-11-25T10:26:27.716Z,9.65
2022-11-25T10:29:38.525Z,9.75
2022-11-25T10:32:50.704Z,9.74
2022-11-25T10:36:06.496Z,10.02
2022-11-25T10:39:20.121Z,10.03
2022-11-25T10:42:28.923Z,9.88
2022-11-25T10:45:45.608Z,10.10
2022-11-25T10:49:15.024Z,10.24
2022-11-25T10:52:24.300Z,10.35
2022-11-25T10:55:33.994Z,10.35
2022-11-25T10:58:41.121Z,10.07
2022-11-25T11:01:47.111Z,10.30
2022-11-25T11:05:00.502Z,10.46
2022-11-25T11:08:12.421Z,10.34
2022-11-25T11:11:23.722Z,10.61
2022-11-25T11:14:30.441Z,10.66
2022-11-25T11:17:37.417Z,10.60
2022-11-25T11:20:48.876Z,10.77
2022-11-25T11:23:57.551Z,10.83
2022-11-25T11:27:08.198Z,10.80
2022-11-25T11:30:27.287Z,10.88
2022-11-25T11:33:59.110Z,10.87
2022-11-25T11:37:38.372Z,10.80
2022-11-25T11:40:52.222Z,10.91
2022-11-25T11:44:18.856Z,10.92
2022-11-25T11:47:45.327Z,11.06
2022-11-25T11:51:18.334Z,11.18
2022-11-25T11:54:44.068Z,11.02
2022-11-25T11:58:01.712Z,10.93
2022-11-25T12:01:25.089Z,10.96
2022-11-25T12:04:54.037Z,11.04
2022-11-25T12:08:34.689Z,11.22
2022-11-25T12:11:46.182Z,11.22
2022-11-25T12:14:57.922Z,11.22
2022-11-25T12:18:29.499Z,11.31
2022-11-25T12:21:53.820Z,11.21
2022-11-25T12:25:09.311Z,11.33
2022-11-25T12:28:35.502Z,11.31
2022-11-25T12:31:56.743Z,11.31
2022-11-25T12:35:11.364Z,11.28
2022-11-25T12:38:27.939Z,11.23
2022-11-25T12:41:43.630Z,11.32
2022-11-25T12:45:07.574Z,11.45
2022-11-25T12:48:17.323Z,11.43
2022-11-25T12:51:46.082Z,11.40
2022-11-25T12:55:07.591Z,11.37
2022-11-25T12:58:54.155Z,11.44
2022-11-25T13:02:05.569Z,11.48
2022-11-25T13:05:45.207Z,11.53
2022-11-25T13:09:28.327Z,11.42
2022-11-25T13:13:07.686Z,11.44
2022-11-25T13:16:15.743Z,11.42
2022-11-25T13:19:24.157Z,11.43
2022-11-25T13:22:30.256Z,11.31
2022-11-25T13:25:38.007Z,11.30
2022-11-25T13:28:43.707Z,11.33
2022-11-25T13:32:25.673Z,11.40
2022-11-25T13:35:34.964Z,11.34
2022-11-25T13:38:49.756Z,11.22
2022-11-25T13:42:25.248Z,11.10
2022-11-25T13:45:43.499Z,11.01
2022-11-25T13:48:49.847Z,11.05
2022-11-25T13:52:17.721Z,10.98
2022-11-25T13:55:32.025Z,10.94
2022-11-25T13:58:37.911Z,10.86
2022-11-25T14:01:46.339Z,10.89
2022-11-25T14:05:11.643Z,10.87
2022-11-25T14:08:27.120Z,10.87
2022-11-25T14:11:47.308Z,10.82
2022-11-25T14:15:25.407Z,10.80
2022-11-25T14:19:28.486Z,10.78
2022-11-25T14:22:58.180Z,10.69
2022-11-25T14:26:41.771Z,10.64
2022-11-25T14:29:44.276Z,10.63
2022-11-25T14:33:11.802Z,10.57
2022-11-25T14:36:40.852Z,10.52
2022-11-25T14:40:01.791Z,10.48
2022-11-25T14:43:15.547Z,10.47
2022-11-25T14:46:23.628Z,10.42
2022-11-25T14:49:55.730Z,10.40
2022-11-25T14:53:12.297Z,10.37
2022-11-25T14:56:26.386Z,10.38
2022-11-25T14:59:32.159Z,10.36
2022-11-25T15:02:41.476Z,10.30
2022-11-25T15:05:57.410Z,10.32
2022-11-25T15:09:21.345Z,10.23
2022-11-25T15:12:32.791Z,10.08
2022-11-25T15:15:38.770Z,10.01
2022-11-25T15:18:54.783Z,10.03
2022-11-25T15:25:28.988Z,9.80
2022-11-25T15:28:36.955Z,9.65
2022-11-25T15:31:42.729Z,9.54
2022-11-25T15:34:49.732Z,9.52
2022-11-25T15:37:55.306Z,9.59
2022-11-25T15:41:01.732Z,9.51
2022-11-25T15:44:07.568Z,9.39
2022-11-25T15:47:29.118Z,9.26
2022-11-25T15:50:35.591Z,9.20
2022-11-25T15:53:47.215Z,9.15
2022-11-25T15:57:16.657Z,9.13
2022-11-25T16:00:23.757Z,9.03
2022-11-25T16:03:31.885Z,8.91
2022-11-25T16:06:37.349Z,9.00
2022-11-25T16:09:51.654Z,8.89
2022-11-25T16:13:21.143Z,8.84
2022-11-25T16:16:30.292Z,8.79
2022-11-25T16:19:46.822Z,8.79
2022-11-25T16:22:52.553Z,8.67
2022-11-25T16:26:04.695Z,8.63
2022-11-25T16:29:31.657Z,8.54
2022-11-25T16:32:37.308Z,8.44
2022-11-25T16:35:43.756Z,8.38
2022-11-25T16:38:54.094Z,8.38
2022-11-25T16:42:04.481Z,8.35
2022-11-25T16:45:20.286Z,8.28
2022-11-25T16:48:25.836Z,8.33
2022-11-25T16:51:31.772Z,8.33
2022-11-25T16:54:39.622Z,8.39
2022-11-25T16:57:45.816Z,8.25
2022-11-25T17:00:57.396Z,8.13
2022-11-25T17:04:03.103Z,8.26
2022-11-25T17:07:32.099Z,8.28
2022-11-25T17:10:42.656Z,8.26
2022-11-25T17:13:52.881Z,8.13
2022-11-25T17:17:05.336Z,8.10
2022-11-25T17:20:15.980Z,8.15
2022-11-25T17:23:22.896Z,7.98
2022-11-25T17:26:34.743Z,7.89
2022-11-25T17:29:45.066Z,7.85
2022-11-25T17:32:58.960Z,7.78
2022-11-25T17:36:04.972Z,7.76
2022-11-25T17:39:12.462Z,7.77
2022-11-25T17:42:23.345Z,7.74
2022-11-25T17:45:29.927Z,7.66
2022-11-25T17:48:36.397Z,7.66
2022-11-25T17:51:43.721Z,7.61
2022-11-25T17:54:49.825Z,7.55
2022-11-25T17:57:56.292Z,7.46
2022-11-25T18:01:02.562Z,7.16
2022-11-25T18:04:21.696Z,7.38
2022-11-25T18:07:27.602Z,7.37
2022-11-25T18:10:33.626Z,7.35
2022-11-25T18:13:42.167Z,7.32
2022-11-25T18:16:48.380Z,7.26
2022-11-25T18:19:55.489Z,7.20
2022-11-25T18:23:02.892Z,7.04
2022-11-25T18:26:12.603Z,6.82
2022-11-25T18:29:25.002Z,6.97
2022-11-25T18:32:30.973Z,7.00
2022-11-25T18:35:37.247Z,7.04
2022-11-25T18:38:53.801Z,7.02
2022-11-25T18:42:01.814Z,7.01
2022-11-25T18:45:15.893Z,6.99
2022-11-25T18:48:26.412Z,6.90
2022-11-25T18:51:32.911Z,6.99
2022-11-25T18:54:38.702Z,6.97
2022-11-25T18:57:48.905Z,7.02
2022-11-25T19:01:04.303Z,6.94
2022-11-25T19:04:17.023Z,6.99
2022-11-25T19:07:22.634Z,7.08
2022-11-25T19:10:32.607Z,7.00
2022-11-25T19:13:38.587Z,7.02
2022-11-25T19:16:45.156Z,7.08
2022-11-25T19:19:51.340Z,6.93
2022-11-25T19:23:01.199Z,6.98
2022-11-25T19:26:32.159Z,6.70
2022-11-25T19:29:42.293Z,6.71
2022-11-25T19:32:52.362Z,6.55
2022-11-25T19:35:59.795Z,6.69
2022-11-25T19:39:15.828Z,6.74
2022-11-25T19:42:23.719Z,6.70
2022-11-25T19:45:31.536Z,6.57
2022-11-25T19:48:39.939Z,6.54
2022-11-25T19:51:47.684Z,6.68
2022-11-25T19:54:54.133Z,6.71
2022-11-25T19:58:00.898Z,6.68
2022-11-25T20:01:07.173Z,6.66
2022-11-25T20:04:21.884Z,6.66
2022-11-25T20:07:28.059Z,6.74
2022-11-25T20:10:33.587Z,6.35
2022-11-25T20:13:40.620Z,6.48
2022-11-25T20:16:46.822Z,6.49
2022-11-25T20:19:57.517Z,6.25
2022-11-25T20:23:16.608Z,6.30
2022-11-25T20:26:34.798Z,6.31
2022-11-25T20:29:40.992Z,6.23
2022-11-25T20:32:47.592Z,6.18
2022-11-25T20:36:14.927Z,6.31
2022-11-25T20:39:21.925Z,6.24
2022-11-25T20:42:28.190Z,6.23
2022-11-25T20:45:34.398Z,6.16
2022-11-25T20:48:40.265Z,6.31
2022-11-25T20:51:46.747Z,6.22
2022-11-25T20:54:53.083Z,6.21
2022-11-25T20:58:00.041Z,6.38
2022-11-25T21:01:07.135Z,6.36
2022-11-25T21:04:13.605Z,6.23
2022-11-25T21:07:19.956Z,6.22
2022-11-25T21:10:29.798Z,6.38
2022-11-25T21:13:36.690Z,6.37
2022-11-25T21:16:43.079Z,6.26
2022-11-25T21:19:49.180Z,6.26
2022-11-25T21:22:58.581Z,6.36
2022-11-25T21:26:17.428Z,6.29
2022-11-25T21:29:23.890Z,6.37
2022-11-25T21:32:29.806Z,6.37
2022-11-25T21:35:38.127Z,6.34
2022-11-25T21:38:45.210Z,6.38
2022-11-25T21:41:51.536Z,6.32
2022-11-25T21:44:57.794Z,6.33
2022-11-25T21:48:03.850Z,6.21
2022-11-25T21:51:22.292Z,6.19
2022-11-25T21:54:28.033Z,6.28
2022-11-25T21:57:33.741Z,6.21
2022-11-25T22:00:39.913Z,6.28
2022-11-25T22:03:46.531Z,6.27
2022-11-25T22:06:52.787Z,6.15
2022-11-25T22:09:58.850Z,6.19
2022-11-25T22:13:06.887Z,6.11
2022-11-25T22:16:17.889Z,6.09
2022-11-25T22:19:27.716Z,6.15
2022-11-25T22:22:34.730Z,6.18
2022-11-25T22:25:40.446Z,6.16
2022-11-25T22:28:50.506Z,6.07
2022-11-25T22:31:56.360Z,6.06
2022-11-25T22:35:02.678Z,6.13
2022-11-25T22:38:18.938Z,6.08
2022-11-25T22:41:24.591Z,5.92
2022-11-25T22:44:43.107Z,6.07
2022-11-25T22:47:49.537Z,6.07
2022-11-25T22:50:55.072Z,6.00
2022-11-25T22:54:00.856Z,6.04
2022-11-25T22:57:06.697Z,6.09
2022-11-25T23:00:21.700Z,6.11
2022-11-25T23:03:30.106Z,6.12
2022-11-25T23:06:36.056Z,6.21
2022-11-25T23:09:43.464Z,6.16
2022-11-25T23:12:49.663Z,6.07
2022-11-25T23:16:00.509Z,5.95
2022-11-25T23:19:09.392Z,6.06
2022-11-25T23:22:15.125Z,5.72
2022-11-25T23:25:23.086Z,5.82
2022-11-25T23:28:28.531Z,5.85
2022-11-25T23:31:38.708Z,5.81
2022-11-25T23:34:45.509Z,5.55
2022-11-25T23:37:57.258Z,5.62
2022-11-25T23:41:03.077Z,5.78
2022-11-25T23:44:24.201Z,5.96
2022-11-25T23:47:29.652Z,6.02
2022-11-25T23:50:35.328Z,6.04
2022-11-25T23:53:41.940Z,6.01
2022-11-25T23:56:48.695Z,5.77
2022-11-25T23:59:55.131Z,5.77
